createdAt,value
2023-12-24T00:00:39.400Z,10.76
2023-12-24T00:01:39.420Z,10.81
2023-12-24T00:02:39.453Z,10.82
2023-12-24T00:03:39.187Z,10.81
2023-12-24T00:04:38.436Z,10.81
2023-12-24T00:05:39.381Z,10.79
2023-12-24T00:06:38.881Z,10.81
2023-12-24T00:07:39.234Z,10.82
2023-12-24T00:08:38.548Z,10.88
2023-12-24T00:09:38.424Z,10.94
2023-12-24T00:10:39.272Z,10.94
2023-12-24T00:11:38.344Z,10.96
2023-12-24T00:12:39.360Z,10.94
2023-12-24T00:13:38.309Z,10.94
2023-12-24T00:14:38.710Z,10.94
2023-12-24T00:15:39.210Z,10.94
2023-12-24T00:16:39.208Z,10.96
2023-12-24T00:17:38.281Z,10.94
2023-12-24T00:18:38.327Z,10.97
2023-12-24T00:19:39.135Z,10.96
2023-12-24T00:20:39.101Z,10.96
2023-12-24T00:21:38.924Z,10.94
2023-12-24T00:22:39.326Z,10.91
2023-12-24T00:23:39.148Z,10.91
2023-12-24T00:24:39.133Z,10.88
2023-12-24T00:25:38.211Z,10.85
2023-12-24T00:26:38.163Z,10.85
2023-12-24T00:27:40.074Z,10.81
2023-12-24T00:28:38.123Z,10.81
2023-12-24T00:29:38.204Z,10.81
2023-12-24T00:30:39.199Z,10.79
2023-12-24T00:31:38.072Z,10.78
2023-12-24T00:32:38.172Z,10.74
2023-12-24T00:33:38.099Z,10.71
2023-12-24T00:34:38.093Z,10.67
2023-12-24T00:35:38.076Z,10.64
2023-12-24T00:36:38.002Z,10.64
2023-12-24T00:37:37.985Z,10.64
2023-12-24T00:38:38.917Z,10.63
2023-12-24T00:39:38.913Z,10.63
2023-12-24T00:40:37.955Z,10.70
2023-12-24T00:41:37.963Z,10.89
2023-12-24T00:42:38.038Z,10.91
2023-12-24T00:43:42.052Z,10.94
2023-12-24T00:44:38.177Z,11.00
2023-12-24T00:45:40.365Z,11.02
2023-12-24T00:46:39.104Z,11.06
2023-12-24T00:47:39.155Z,11.09
2023-12-24T00:48:38.991Z,11.07
2023-12-24T00:49:38.832Z,11.06
2023-12-24T00:50:38.754Z,11.04
2023-12-24T00:51:38.822Z,11.06
2023-12-24T00:52:39.043Z,11.02
2023-12-24T00:53:38.925Z,11.00
2023-12-24T00:54:38.107Z,10.99
2023-12-24T00:55:38.719Z,10.94
2023-12-24T00:56:38.766Z,11.02
2023-12-24T00:57:38.931Z,11.04
2023-12-24T00:58:37.743Z,11.06
2023-12-24T00:59:37.958Z,11.03
2023-12-24T01:00:37.872Z,11.03
2023-12-24T01:01:38.289Z,11.02
2023-12-24T01:14:43.257Z,10.76
2023-12-24T01:15:43.155Z,10.76
2023-12-24T01:16:43.193Z,10.76
2023-12-24T01:17:44.176Z,10.78
2023-12-24T01:18:43.204Z,10.79
2023-12-24T01:19:43.150Z,10.79
2023-12-24T01:20:44.100Z,10.79
2023-12-24T01:21:43.120Z,10.82
2023-12-24T01:22:44.037Z,10.82
2023-12-24T01:23:43.149Z,10.82
2023-12-24T01:24:43.097Z,10.88
2023-12-24T01:25:44.051Z,10.89
2023-12-24T01:26:44.018Z,10.91
2023-12-24T01:27:43.069Z,10.91
2023-12-24T01:28:43.057Z,10.91
2023-12-24T01:29:43.974Z,10.89
2023-12-24T01:30:44.009Z,10.91
2023-12-24T01:31:43.039Z,10.88
2023-12-24T01:32:44.096Z,10.86
2023-12-24T01:33:43.212Z,10.86
2023-12-24T01:34:42.982Z,10.86
2023-12-24T01:35:43.040Z,10.86
2023-12-24T01:36:43.897Z,10.86
2023-12-24T01:37:42.978Z,10.82
2023-12-24T01:38:42.932Z,10.85
2023-12-24T01:39:42.898Z,10.89
2023-12-24T01:40:42.890Z,10.96
2023-12-24T01:41:43.937Z,10.97
2023-12-24T01:42:43.827Z,10.99
2023-12-24T01:43:42.866Z,11.02
2023-12-24T01:44:42.877Z,11.03
2023-12-24T01:45:42.822Z,11.03
2023-12-24T01:46:42.833Z,11.02
2023-12-24T01:47:42.945Z,11.02
2023-12-24T01:48:42.862Z,11.00
2023-12-24T01:49:42.804Z,10.99
2023-12-24T01:50:42.903Z,10.99
2023-12-24T01:51:42.800Z,10.96
2023-12-24T01:52:42.748Z,10.92
2023-12-24T01:53:42.726Z,10.92
2023-12-24T01:54:42.753Z,10.91
2023-12-24T01:55:43.708Z,10.92
2023-12-24T01:56:42.747Z,10.91
2023-12-24T01:57:43.676Z,10.94
2023-12-24T01:58:43.658Z,10.94
2023-12-24T01:59:42.677Z,10.96
2023-12-24T02:00:43.640Z,10.97
2023-12-24T02:01:43.627Z,11.03
2023-12-24T02:02:42.684Z,11.09
2023-12-24T02:03:43.647Z,11.11
2023-12-24T02:04:42.689Z,11.14
2023-12-24T02:05:43.675Z,11.14
2023-12-24T02:06:42.610Z,11.14
2023-12-24T02:07:42.578Z,11.11
2023-12-24T02:08:42.674Z,11.11
2023-12-24T02:09:43.699Z,11.07
2023-12-24T02:10:45.579Z,11.06
2023-12-24T02:11:44.070Z,11.04
2023-12-24T02:12:43.582Z,11.04
2023-12-24T02:13:44.808Z,11.02
2023-12-24T02:14:43.704Z,11.02
2023-12-24T02:15:43.960Z,11.02
2023-12-24T02:16:44.653Z,11.00
2023-12-24T02:17:44.320Z,10.99
2023-12-24T02:18:44.688Z,10.97
2023-12-24T02:19:44.715Z,10.94
2023-12-24T02:20:44.138Z,10.97
2023-12-24T02:21:43.445Z,10.99
2023-12-24T02:22:43.492Z,11.00
2023-12-24T02:23:43.351Z,11.00
2023-12-24T02:24:43.866Z,11.00
2023-12-24T02:25:43.524Z,11.00
2023-12-24T02:26:43.430Z,10.97
2023-12-24T02:27:42.962Z,10.99
2023-12-24T02:28:43.858Z,11.03
2023-12-24T02:29:44.433Z,11.03
2023-12-24T02:30:42.315Z,11.02
2023-12-24T02:31:43.466Z,11.00
2023-12-24T02:32:46.072Z,10.99
2023-12-24T02:33:43.868Z,10.99
2023-12-24T02:34:43.352Z,11.00
2023-12-24T02:35:44.420Z,10.99
2023-12-24T02:36:42.872Z,10.96
2023-12-24T02:37:42.309Z,10.97
2023-12-24T02:38:42.259Z,10.94
2023-12-24T02:39:42.180Z,10.92
2023-12-24T02:40:42.185Z,10.92
2023-12-24T02:41:42.192Z,10.91
2023-12-24T02:42:42.180Z,10.91
2023-12-24T02:43:42.152Z,10.92
2023-12-24T02:44:42.138Z,10.99
2023-12-24T02:45:42.127Z,11.03
2023-12-24T02:46:42.134Z,11.06
2023-12-24T02:47:42.265Z,11.06
2023-12-24T02:48:42.508Z,11.04
2023-12-24T02:49:42.085Z,11.03
2023-12-24T02:50:42.119Z,11.03
2023-12-24T02:51:42.110Z,11.03
2023-12-24T02:52:42.102Z,11.07
2023-12-24T02:53:42.187Z,11.10
2023-12-24T02:54:42.039Z,11.18
2023-12-24T02:55:42.018Z,11.21
2023-12-24T02:56:42.059Z,11.21
2023-12-24T02:57:42.321Z,11.21
2023-12-24T02:58:42.546Z,11.22
2023-12-24T02:59:42.042Z,11.22
2023-12-24T03:00:41.992Z,11.19
2023-12-24T03:01:43.690Z,11.21
2023-12-24T03:02:44.801Z,11.22
2023-12-24T03:03:41.980Z,11.24
2023-12-24T03:04:41.918Z,11.28
2023-12-24T03:05:42.005Z,11.29
2023-12-24T03:06:42.008Z,11.33
2023-12-24T03:07:41.887Z,11.33
2023-12-24T03:08:42.704Z,11.33
2023-12-24T03:09:41.861Z,11.35
2023-12-24T03:10:41.871Z,11.32
2023-12-24T03:11:41.857Z,11.29
2023-12-24T03:12:41.893Z,11.29
2023-12-24T03:13:41.805Z,11.32
2023-12-24T03:14:41.804Z,11.35
2023-12-24T03:15:41.800Z,11.40
2023-12-24T03:16:41.776Z,11.39
2023-12-24T03:17:41.890Z,11.36
2023-12-24T03:18:41.936Z,11.37
2023-12-24T03:19:41.741Z,11.36
2023-12-24T03:20:41.829Z,11.36
2023-12-24T03:21:41.803Z,11.39
2023-12-24T03:22:42.638Z,11.37
2023-12-24T03:23:41.664Z,11.39
2023-12-24T03:24:41.677Z,11.39
2023-12-24T03:25:41.689Z,11.39
2023-12-24T03:26:41.652Z,11.36
2023-12-24T03:27:42.080Z,11.36
2023-12-24T03:28:42.184Z,11.36
2023-12-24T03:29:41.677Z,11.39
2023-12-24T03:30:41.653Z,11.40
2023-12-24T03:31:41.601Z,11.43
2023-12-24T03:32:41.664Z,11.44
2023-12-24T03:33:41.646Z,11.46
2023-12-24T03:34:41.561Z,11.44
2023-12-24T03:35:41.558Z,11.46
2023-12-24T03:36:41.561Z,11.49
2023-12-24T03:37:41.838Z,11.49
2023-12-24T03:38:41.979Z,11.47
2023-12-24T03:39:41.544Z,11.47
2023-12-24T03:40:41.478Z,11.47
2023-12-24T03:41:41.521Z,11.49
2023-12-24T03:42:41.467Z,11.49
2023-12-24T03:43:41.465Z,11.46
2023-12-24T03:44:41.494Z,11.42
2023-12-24T03:45:41.418Z,11.40
2023-12-24T03:46:41.411Z,11.40
2023-12-24T03:47:42.526Z,11.37
2023-12-24T03:48:41.495Z,11.42
2023-12-24T03:49:41.390Z,11.46
2023-12-24T03:50:41.421Z,11.49
2023-12-24T03:51:41.345Z,11.47
2023-12-24T03:52:41.343Z,11.44
2023-12-24T03:53:41.513Z,11.43
2023-12-24T03:54:42.277Z,11.42
2023-12-24T03:55:41.309Z,11.39
2023-12-24T03:56:42.297Z,11.36
2023-12-24T03:57:42.279Z,11.32
2023-12-24T03:58:41.276Z,11.28
2023-12-24T03:59:41.338Z,11.27
2023-12-24T04:00:46.258Z,11.25
2023-12-24T04:01:41.354Z,11.15
2023-12-24T04:02:41.387Z,11.15
2023-12-24T04:03:41.240Z,11.09
2023-12-24T04:04:41.241Z,11.06
2023-12-24T04:05:42.293Z,11.03
2023-12-24T04:06:42.189Z,10.99
2023-12-24T04:07:41.178Z,10.96
2023-12-24T04:08:41.177Z,10.92
2023-12-24T04:09:41.144Z,10.86
2023-12-24T04:10:44.896Z,10.81
2023-12-24T04:11:41.246Z,10.73
2023-12-24T04:12:41.145Z,10.70
2023-12-24T04:13:41.104Z,10.66
2023-12-24T04:14:41.208Z,10.67
2023-12-24T04:15:42.865Z,10.63
2023-12-24T04:16:41.087Z,10.63
2023-12-24T04:17:41.140Z,10.64
2023-12-24T04:18:41.133Z,10.63
2023-12-24T04:19:41.311Z,10.60
2023-12-24T04:20:41.091Z,10.59
2023-12-24T04:21:41.965Z,10.52
2023-12-24T04:22:40.958Z,10.48
2023-12-24T04:23:40.997Z,10.48
2023-12-24T04:24:40.951Z,10.41
2023-12-24T04:25:40.994Z,10.36
2023-12-24T04:26:41.098Z,10.38
2023-12-24T04:27:40.939Z,10.42
2023-12-24T04:28:40.954Z,10.42
2023-12-24T04:29:40.948Z,10.41
2023-12-24T04:30:41.005Z,10.42
2023-12-24T04:31:41.842Z,10.41
2023-12-24T04:32:41.917Z,10.40
2023-12-24T04:33:41.914Z,10.33
2023-12-24T04:34:40.888Z,10.33
2023-12-24T04:35:41.240Z,10.32
2023-12-24T04:36:40.841Z,10.33
2023-12-24T04:37:41.769Z,10.30
2023-12-24T04:38:40.833Z,10.30
2023-12-24T04:39:40.824Z,10.30
2023-12-24T04:40:40.916Z,10.30
2023-12-24T04:41:41.802Z,10.30
2023-12-24T04:42:40.753Z,10.29
2023-12-24T04:43:40.782Z,10.27
2023-12-24T04:44:40.823Z,10.27
2023-12-24T04:45:41.698Z,10.25
2023-12-24T04:46:40.730Z,10.25
2023-12-24T04:47:40.783Z,10.23
2023-12-24T04:48:40.812Z,10.25
2023-12-24T04:49:41.647Z,10.26
2023-12-24T04:50:40.771Z,10.26
2023-12-24T04:51:40.652Z,10.27
2023-12-24T04:52:41.618Z,10.29
2023-12-24T04:53:42.588Z,10.29
2023-12-24T04:54:40.615Z,10.27
2023-12-24T04:55:40.621Z,10.26
2023-12-24T04:56:40.664Z,10.25
2023-12-24T04:57:40.587Z,10.25
2023-12-24T04:58:40.680Z,10.23
2023-12-24T04:59:40.621Z,10.22
2023-12-24T05:00:44.331Z,10.20
2023-12-24T05:01:40.547Z,10.20
2023-12-24T05:02:40.624Z,10.18
2023-12-24T05:03:40.524Z,10.20
2023-12-24T05:04:40.567Z,10.18
2023-12-24T05:05:40.622Z,10.18
2023-12-24T05:06:40.469Z,10.17
2023-12-24T05:07:40.484Z,10.15
2023-12-24T05:08:40.611Z,10.14
2023-12-24T05:09:41.923Z,10.12
2023-12-24T05:10:40.431Z,10.11
2023-12-24T05:11:40.537Z,10.09
2023-12-24T05:12:40.433Z,10.08
2023-12-24T05:13:40.679Z,10.09
2023-12-24T05:14:40.452Z,10.11
2023-12-24T05:15:40.375Z,10.09
2023-12-24T05:16:40.351Z,10.07
2023-12-24T05:17:40.429Z,10.09
2023-12-24T05:18:40.408Z,10.11
2023-12-24T05:19:40.344Z,10.12
2023-12-24T05:20:40.392Z,10.14
2023-12-24T05:21:40.313Z,10.15
2023-12-24T05:22:41.227Z,10.17
2023-12-24T05:23:40.360Z,10.14
2023-12-24T05:24:40.264Z,10.17
2023-12-24T05:25:40.290Z,10.18
2023-12-24T05:26:40.336Z,10.18
2023-12-24T05:27:40.250Z,10.17
2023-12-24T05:28:40.214Z,10.15
2023-12-24T05:29:40.226Z,10.14
2023-12-24T05:30:40.270Z,10.14
2023-12-24T05:31:40.230Z,10.14
2023-12-24T05:32:40.353Z,10.14
2023-12-24T05:33:40.249Z,10.14
2023-12-24T05:34:40.208Z,10.12
2023-12-24T05:35:40.195Z,10.12
2023-12-24T05:36:40.184Z,10.14
2023-12-24T05:37:40.168Z,10.15
2023-12-24T05:38:40.927Z,10.14
2023-12-24T05:39:40.108Z,10.12
2023-12-24T05:40:40.108Z,10.14
2023-12-24T05:41:40.200Z,10.22
2023-12-24T05:42:40.082Z,10.26
2023-12-24T05:43:40.102Z,10.27
2023-12-24T05:44:40.118Z,10.26
2023-12-24T05:45:40.048Z,10.27
2023-12-24T05:46:40.374Z,10.25
2023-12-24T05:47:40.111Z,10.23
2023-12-24T05:48:40.113Z,10.23
2023-12-24T05:49:40.114Z,10.22
2023-12-24T05:50:40.270Z,10.25
2023-12-24T05:51:39.980Z,10.25
2023-12-24T05:52:39.934Z,10.23
2023-12-24T05:53:40.121Z,10.22
2023-12-24T05:54:40.633Z,10.23
2023-12-24T05:55:39.884Z,10.22
2023-12-24T05:56:40.006Z,10.22
2023-12-24T05:57:39.910Z,10.20
2023-12-24T05:58:39.887Z,10.23
2023-12-24T05:59:39.909Z,10.25
2023-12-24T06:00:44.909Z,10.26
2023-12-24T06:01:39.817Z,10.26
2023-12-24T06:02:40.216Z,10.26
2023-12-24T06:03:39.961Z,10.25
2023-12-24T06:04:39.814Z,10.20
2023-12-24T06:05:39.889Z,10.20
2023-12-24T06:06:40.067Z,10.22
2023-12-24T06:07:39.794Z,10.18
2023-12-24T06:08:40.042Z,10.20
2023-12-24T06:09:39.756Z,10.23
2023-12-24T06:10:40.020Z,10.25
2023-12-24T06:11:39.781Z,10.22
2023-12-24T06:12:39.709Z,10.20
2023-12-24T06:13:39.792Z,10.22
2023-12-24T06:14:39.804Z,10.18
2023-12-24T06:15:39.732Z,10.18
2023-12-24T06:16:39.729Z,10.15
2023-12-24T06:17:39.931Z,10.14
2023-12-24T06:18:41.876Z,10.12
2023-12-24T06:19:39.737Z,10.12
2023-12-24T06:20:40.610Z,10.11
2023-12-24T06:21:40.557Z,10.09
2023-12-24T06:22:40.566Z,10.11
2023-12-24T06:23:39.725Z,10.09
2023-12-24T06:24:39.644Z,10.07
2023-12-24T06:25:41.219Z,10.04
2023-12-24T06:26:40.038Z,10.01
2023-12-24T06:27:39.573Z,10.02
2023-12-24T06:28:40.358Z,10.04
2023-12-24T06:29:42.408Z,10.04
2023-12-24T06:30:39.574Z,10.02
2023-12-24T06:31:39.492Z,10.02
2023-12-24T06:32:40.437Z,10.04
2023-12-24T06:33:39.569Z,10.07
2023-12-24T06:34:42.457Z,10.08
2023-12-24T06:35:39.550Z,10.07
2023-12-24T06:36:39.438Z,10.05
2023-12-24T06:37:39.436Z,10.08
2023-12-24T06:38:40.450Z,10.07
2023-12-24T06:39:39.493Z,10.07
2023-12-24T06:40:39.401Z,10.09
2023-12-24T06:41:39.428Z,10.11
2023-12-24T06:42:39.669Z,10.11
2023-12-24T06:43:39.392Z,10.08
2023-12-24T06:44:39.501Z,10.11
2023-12-24T06:45:39.360Z,10.14
2023-12-24T06:46:39.322Z,10.15
2023-12-24T06:47:40.397Z,10.18
2023-12-24T06:48:39.427Z,10.23
2023-12-24T06:49:39.339Z,10.29
2023-12-24T06:50:40.403Z,10.30
2023-12-24T06:51:39.279Z,10.30
2023-12-24T06:52:39.523Z,10.32
2023-12-24T06:53:39.563Z,10.34
2023-12-24T06:54:39.243Z,10.38
2023-12-24T06:55:39.293Z,10.44
2023-12-24T06:56:40.292Z,10.47
2023-12-24T06:57:39.230Z,10.52
2023-12-24T06:58:39.201Z,10.51
2023-12-24T06:59:39.546Z,10.48
2023-12-24T07:00:39.245Z,10.53
2023-12-24T07:01:40.995Z,10.55
2023-12-24T07:02:39.188Z,10.59
2023-12-24T07:03:39.184Z,10.60
2023-12-24T07:04:39.172Z,10.63
2023-12-24T07:05:39.194Z,10.66
2023-12-24T07:06:39.445Z,10.82
2023-12-24T07:07:39.087Z,10.94
2023-12-24T07:08:40.164Z,10.99
2023-12-24T07:09:39.055Z,10.97
2023-12-24T07:10:40.002Z,10.92
2023-12-24T07:11:40.354Z,10.91
2023-12-24T07:12:39.984Z,10.86
2023-12-24T07:13:39.826Z,10.86
2023-12-24T07:14:39.032Z,10.88
2023-12-24T07:15:40.069Z,10.86
2023-12-24T07:16:41.353Z,10.86
2023-12-24T07:17:40.073Z,10.89
2023-12-24T07:18:39.268Z,10.85
2023-12-24T07:19:40.231Z,10.85
2023-12-24T07:20:39.994Z,10.84
2023-12-24T07:21:39.004Z,10.82
2023-12-24T07:22:38.929Z,10.82
2023-12-24T07:23:39.079Z,10.81
2023-12-24T07:24:53.255Z,10.92
2023-12-24T07:25:39.933Z,10.94
2023-12-24T07:26:38.932Z,10.96
2023-12-24T07:27:39.151Z,10.97
2023-12-24T07:28:38.949Z,10.94
2023-12-24T07:29:38.876Z,10.96
2023-12-24T07:30:39.791Z,10.96
2023-12-24T07:31:39.777Z,10.94
2023-12-24T07:32:38.930Z,10.97
2023-12-24T07:33:38.835Z,11.04
2023-12-24T07:34:38.827Z,11.09
2023-12-24T07:35:39.749Z,11.10
2023-12-24T07:36:39.696Z,11.18
2023-12-24T07:37:38.720Z,11.25
2023-12-24T07:38:38.913Z,11.24
2023-12-24T07:39:38.824Z,11.21
2023-12-24T07:40:38.696Z,11.21
2023-12-24T07:41:41.571Z,11.18
2023-12-24T07:42:38.769Z,11.18
2023-12-24T07:43:39.543Z,11.21
2023-12-24T07:44:39.059Z,11.18
2023-12-24T07:45:38.680Z,11.18
2023-12-24T07:46:38.683Z,11.18
2023-12-24T07:47:40.312Z,11.15
2023-12-24T07:48:39.003Z,11.15
2023-12-24T07:49:39.529Z,11.15
2023-12-24T07:50:39.414Z,11.17
2023-12-24T07:51:39.478Z,11.18
2023-12-24T07:52:41.465Z,11.14
2023-12-24T07:53:39.980Z,11.19
2023-12-24T07:54:41.008Z,11.21
2023-12-24T07:55:38.553Z,11.19
2023-12-24T07:56:38.943Z,11.17
2023-12-24T07:57:38.496Z,11.17
2023-12-24T07:58:40.650Z,11.11
2023-12-24T07:59:39.866Z,11.11
2023-12-24T08:00:42.556Z,11.15
2023-12-24T08:01:39.296Z,11.18
2023-12-24T08:02:40.312Z,11.17
2023-12-24T08:03:38.506Z,11.18
2023-12-24T08:04:38.522Z,11.18
2023-12-24T08:05:39.511Z,11.17
2023-12-24T08:06:39.572Z,11.19
2023-12-24T08:07:38.422Z,11.17
2023-12-24T08:08:39.158Z,11.17
2023-12-24T08:09:39.564Z,11.27
2023-12-24T08:10:38.717Z,11.39
2023-12-24T08:11:38.995Z,11.42
2023-12-24T08:12:38.373Z,11.42
2023-12-24T08:13:38.959Z,11.39
2023-12-24T08:14:40.370Z,11.35
2023-12-24T08:15:39.489Z,11.32
2023-12-24T08:16:39.386Z,11.35
2023-12-24T08:17:38.403Z,11.42
2023-12-24T08:18:38.672Z,11.54
2023-12-24T08:19:40.698Z,11.58
2023-12-24T08:20:38.393Z,11.58
2023-12-24T08:21:40.458Z,11.54
2023-12-24T08:22:39.396Z,11.60
2023-12-24T08:23:42.467Z,11.72
2023-12-24T08:24:40.669Z,11.73
2023-12-24T08:25:39.824Z,11.70
2023-12-24T08:26:39.027Z,11.79
2023-12-24T08:27:42.326Z,11.82
2023-12-24T08:28:40.150Z,11.80
2023-12-24T08:29:42.913Z,11.78
2023-12-24T08:30:41.133Z,11.79
2023-12-24T08:31:39.806Z,11.85
2023-12-24T08:32:39.143Z,11.88
2023-12-24T08:33:42.542Z,11.88
2023-12-24T08:34:39.220Z,11.85
2023-12-24T08:35:38.594Z,11.83
2023-12-24T08:36:39.059Z,11.85
2023-12-24T08:38:54.714Z,11.85
2023-12-24T08:39:54.793Z,11.83
2023-12-24T08:40:55.625Z,11.79
2023-12-24T08:41:55.610Z,11.80
2023-12-24T08:42:54.858Z,11.80
2023-12-24T08:43:54.661Z,11.80
2023-12-24T08:44:54.609Z,11.83
2023-12-24T08:45:54.600Z,11.88
2023-12-24T08:48:05.886Z,11.86
2023-12-24T08:49:06.975Z,11.86
2023-12-24T08:50:06.120Z,11.85
2023-12-24T08:51:10.094Z,11.83
2023-12-24T08:52:05.677Z,11.86
2023-12-24T08:53:05.976Z,11.88
2023-12-24T08:54:05.625Z,11.85
2023-12-24T08:55:07.537Z,11.88
2023-12-24T08:56:05.922Z,11.91
2023-12-24T08:57:05.562Z,11.95
2023-12-24T08:58:05.571Z,12.01
2023-12-24T08:59:05.651Z,12.10
2023-12-24T09:00:05.974Z,12.07
2023-12-24T09:01:09.665Z,12.04
2023-12-24T09:02:06.576Z,12.05
2023-12-24T09:03:05.931Z,12.02
2023-12-24T09:04:05.542Z,12.05
2023-12-24T09:05:07.546Z,12.04
2023-12-24T09:06:05.654Z,12.07
2023-12-24T09:07:05.845Z,12.04
2023-12-24T09:08:05.516Z,12.07
2023-12-24T09:09:06.022Z,12.09
2023-12-24T09:10:05.566Z,12.05
2023-12-24T09:11:05.502Z,12.04
2023-12-24T09:12:05.429Z,12.02
2023-12-24T09:13:05.770Z,12.02
2023-12-24T09:14:05.475Z,12.04
2023-12-24T09:15:05.361Z,12.07
2023-12-24T09:16:05.417Z,12.04
2023-12-24T09:17:05.365Z,12.05
2023-12-24T09:18:05.767Z,12.10
2023-12-24T09:19:05.516Z,12.12
2023-12-24T09:20:07.081Z,12.12
2023-12-24T09:21:05.362Z,12.13
2023-12-24T09:22:05.281Z,12.19
2023-12-24T09:23:05.735Z,12.17
2023-12-24T09:24:05.360Z,12.17
2023-12-24T09:25:05.295Z,12.17
2023-12-24T09:26:05.263Z,12.19
2023-12-24T09:27:05.273Z,12.19
2023-12-24T09:28:05.244Z,12.21
2023-12-24T09:29:05.276Z,12.24
2023-12-24T09:30:05.472Z,12.23
2023-12-24T09:31:05.215Z,12.24
2023-12-24T09:32:05.607Z,12.28
2023-12-24T09:33:05.394Z,12.29
2023-12-24T09:34:05.307Z,12.27
2023-12-24T09:35:06.028Z,12.31
2023-12-24T09:36:05.416Z,12.34
2023-12-24T09:37:05.942Z,12.35
2023-12-24T09:38:05.145Z,12.37
2023-12-24T09:39:05.124Z,12.35
2023-12-24T09:40:05.435Z,12.31
2023-12-24T09:41:05.144Z,12.31
2023-12-24T09:42:06.356Z,12.32
2023-12-24T09:43:05.109Z,12.32
2023-12-24T09:44:05.051Z,12.31
2023-12-24T09:45:05.135Z,12.31
2023-12-24T09:46:05.016Z,12.31
2023-12-24T09:47:05.082Z,12.32
2023-12-24T09:48:05.101Z,12.35
2023-12-24T09:49:05.812Z,12.35
2023-12-24T09:50:05.048Z,12.39
2023-12-24T09:51:07.971Z,12.39
2023-12-24T09:52:06.943Z,12.41
2023-12-24T09:53:04.982Z,12.45
2023-12-24T09:56:07.134Z,12.42
2023-12-24T09:57:07.617Z,12.41
2023-12-24T09:58:06.255Z,12.39
2023-12-24T09:59:07.959Z,12.38
2023-12-24T10:00:06.202Z,12.39
2023-12-24T10:01:06.229Z,12.38
2023-12-24T10:02:06.181Z,12.38
2023-12-24T10:03:06.171Z,12.41
2023-12-24T10:04:07.095Z,12.46
2023-12-24T10:05:06.481Z,12.45
2023-12-24T10:06:06.273Z,12.47
2023-12-24T10:07:06.169Z,12.49
2023-12-24T10:08:06.119Z,12.46
2023-12-24T10:09:06.494Z,12.50
2023-12-24T10:10:06.094Z,12.53
2023-12-24T10:11:06.488Z,12.54
2023-12-24T10:12:06.037Z,12.53
2023-12-24T10:13:06.342Z,12.54
2023-12-24T10:14:06.139Z,12.56
2023-12-24T10:16:40.917Z,12.64
2023-12-24T10:17:41.394Z,12.64
2023-12-24T10:18:40.900Z,12.67
2023-12-24T10:19:43.676Z,12.68
2023-12-24T10:20:42.386Z,12.62
2023-12-24T10:21:40.825Z,12.60
2023-12-24T10:22:40.755Z,12.62
2023-12-24T10:23:40.840Z,12.65
2023-12-24T10:24:41.137Z,12.68
2023-12-24T10:25:42.049Z,12.65
2023-12-24T10:26:40.792Z,12.67
2023-12-24T10:27:40.708Z,12.65
2023-12-24T10:28:41.112Z,12.67
2023-12-24T10:29:40.778Z,12.68
2023-12-24T10:33:04.744Z,12.71
2023-12-24T10:35:18.003Z,12.70
2023-12-24T10:36:21.994Z,12.71
2023-12-24T10:37:20.767Z,12.71
2023-12-24T10:38:18.008Z,12.71
2023-12-24T10:39:17.905Z,12.72
2023-12-24T10:40:17.926Z,12.75
2023-12-24T10:41:17.949Z,12.75
2023-12-24T10:42:18.240Z,12.77
2023-12-24T10:43:19.734Z,12.75
2023-12-24T10:44:17.883Z,12.75
2023-12-24T10:45:19.177Z,12.78
2023-12-24T10:46:17.819Z,12.78
2023-12-24T10:47:17.874Z,12.78
2023-12-24T10:48:18.070Z,12.79
2023-12-24T10:49:17.852Z,12.85
2023-12-24T10:50:17.817Z,12.86
2023-12-24T10:51:20.581Z,12.83
2023-12-24T10:52:17.858Z,12.82
2023-12-24T10:53:18.103Z,12.85
2023-12-24T10:54:17.874Z,12.82
2023-12-24T10:55:18.499Z,12.79
2023-12-24T10:56:17.796Z,12.83
2023-12-24T10:57:17.709Z,12.83
2023-12-24T10:58:18.170Z,12.83
2023-12-24T11:00:57.644Z,12.86
2023-12-24T11:01:58.281Z,12.90
2023-12-24T11:02:56.084Z,12.92
2023-12-24T11:03:57.629Z,12.93
2023-12-24T11:04:56.106Z,12.90
2023-12-24T11:05:55.860Z,12.92
2023-12-24T11:06:56.459Z,12.93
2023-12-24T11:07:55.761Z,12.95
2023-12-24T11:08:57.035Z,12.96
2023-12-24T11:09:58.583Z,13.00
2023-12-24T11:10:56.724Z,13.01
2023-12-24T11:11:56.663Z,13.01
2023-12-24T11:13:02.453Z,13.04
2023-12-24T11:13:57.080Z,13.07
2023-12-24T11:14:58.506Z,13.07
2023-12-24T11:15:55.645Z,13.05
2023-12-24T11:16:57.528Z,13.05
2023-12-24T11:17:55.821Z,13.08
2023-12-24T11:18:56.643Z,13.07
2023-12-24T11:19:55.930Z,13.10
2023-12-24T11:20:55.720Z,13.14
2023-12-24T11:21:56.322Z,13.22
2023-12-24T11:22:56.517Z,13.23
2023-12-24T11:23:57.283Z,13.25
2023-12-24T11:24:55.912Z,13.26
2023-12-24T11:25:55.941Z,13.23
2023-12-24T11:27:17.538Z,13.26
2023-12-24T11:27:55.500Z,13.26
2023-12-24T11:33:45.049Z,13.19
2023-12-24T11:34:44.882Z,13.15
2023-12-24T11:35:44.841Z,13.19
2023-12-24T11:36:45.758Z,13.17
2023-12-24T11:37:44.882Z,13.19
2023-12-24T11:38:49.327Z,13.23
2023-12-24T11:39:48.755Z,13.20
2023-12-24T11:40:45.846Z,13.22
2023-12-24T11:41:45.810Z,13.22
2023-12-24T11:42:47.504Z,13.29
2023-12-24T11:43:44.770Z,13.28
2023-12-24T11:44:44.784Z,13.26
2023-12-24T11:45:45.695Z,13.33
2023-12-24T11:52:31.537Z,13.32
2023-12-24T11:53:29.619Z,13.29
2023-12-24T11:54:29.625Z,13.30
2023-12-24T11:55:29.896Z,13.30
2023-12-24T11:56:30.397Z,13.26
2023-12-24T11:57:29.815Z,13.26
2023-12-24T11:58:29.970Z,13.25
2023-12-24T11:59:30.292Z,13.23
2023-12-24T12:00:30.539Z,13.25
2023-12-24T12:01:29.511Z,13.22
2023-12-24T12:02:29.604Z,13.22
2023-12-24T12:03:29.619Z,13.23
2023-12-24T12:04:29.517Z,13.20
2023-12-24T12:05:29.591Z,13.20
2023-12-24T12:06:31.354Z,13.23
2023-12-24T12:07:29.447Z,13.25
2023-12-24T12:08:29.865Z,13.25
2023-12-24T12:09:30.020Z,13.26
2023-12-24T12:10:33.460Z,13.28
2023-12-24T12:11:29.414Z,13.25
2023-12-24T12:12:29.375Z,13.25
2023-12-24T12:13:29.646Z,13.23
2023-12-24T12:14:29.428Z,13.23
2023-12-24T12:15:29.336Z,13.22
2023-12-24T12:16:29.353Z,13.22
2023-12-24T12:17:29.490Z,13.23
2023-12-24T12:18:29.346Z,13.23
2023-12-24T12:19:31.074Z,13.25
2023-12-24T12:20:29.298Z,13.23
2023-12-24T12:21:29.269Z,13.25
2023-12-24T12:22:30.030Z,13.26
2023-12-24T12:23:29.252Z,13.25
2023-12-24T12:24:29.218Z,13.23
2023-12-24T12:25:29.315Z,13.26
2023-12-24T12:26:29.264Z,13.22
2023-12-24T12:27:30.016Z,13.26
2023-12-24T12:28:29.192Z,13.22
2023-12-24T12:29:30.017Z,13.25
2023-12-24T12:30:33.286Z,13.23
2023-12-24T12:31:29.559Z,13.25
2023-12-24T12:32:31.126Z,13.28
2023-12-24T12:33:31.125Z,13.25
2023-12-24T12:34:29.289Z,13.28
2023-12-24T12:35:29.156Z,13.29
2023-12-24T12:36:29.088Z,13.28
2023-12-24T12:37:29.115Z,13.25
2023-12-24T12:38:30.165Z,13.25
2023-12-24T12:39:32.098Z,13.23
2023-12-24T12:40:36.101Z,13.26
2023-12-24T12:41:30.070Z,13.25
2023-12-24T12:42:35.809Z,13.23
2023-12-24T12:43:30.024Z,13.23
2023-12-24T12:44:29.098Z,13.23
2023-12-24T12:45:30.037Z,13.23
2023-12-24T12:46:28.986Z,13.22
2023-12-24T12:47:29.034Z,13.17
2023-12-24T12:48:29.116Z,13.14
2023-12-24T12:49:29.783Z,13.07
2023-12-24T12:50:30.911Z,13.00
2023-12-24T12:51:29.476Z,12.85
2023-12-24T12:52:29.603Z,12.68
2023-12-24T12:53:28.936Z,12.52
2023-12-24T12:54:28.986Z,12.38
2023-12-24T12:55:28.886Z,12.32
2023-12-24T12:56:28.918Z,12.20
2023-12-24T12:57:28.828Z,12.14
2023-12-24T12:58:28.898Z,12.05
2023-12-24T12:59:31.663Z,12.01
2023-12-24T13:00:28.825Z,11.94
2023-12-24T13:01:28.811Z,11.82
2023-12-24T13:02:28.885Z,11.82
2023-12-24T13:03:28.842Z,11.82
2023-12-24T13:04:28.778Z,11.82
2023-12-24T13:05:29.202Z,11.78
2023-12-24T13:06:28.825Z,11.76
2023-12-24T13:07:28.810Z,11.73
2023-12-24T13:08:28.785Z,11.73
2023-12-24T13:09:28.762Z,11.62
2023-12-24T13:10:28.704Z,11.61
2023-12-24T13:11:28.733Z,11.60
2023-12-24T13:12:28.757Z,11.58
2023-12-24T13:13:28.686Z,11.57
2023-12-24T13:14:28.687Z,11.54
2023-12-24T13:15:28.642Z,11.51
2023-12-24T13:16:30.506Z,11.51
2023-12-24T13:17:28.720Z,11.51
2023-12-24T13:18:29.771Z,11.47
2023-12-24T13:19:28.671Z,11.44
2023-12-24T13:20:28.611Z,11.42
2023-12-24T13:21:28.613Z,11.37
2023-12-24T13:22:28.545Z,11.37
2023-12-24T13:23:28.629Z,11.39
2023-12-24T13:24:28.542Z,11.33
2023-12-24T13:25:28.566Z,11.29
2023-12-24T13:26:28.577Z,11.29